Time;durP1;ratioP1;P1;durP2;ratioP2;P2;SDS_P1;SDS_P2;PMS_P1;PMS_P2;Temp;Humidity;BMP_temperature;BMP_pressure;BME280_temperature;BME280_humidity;BME280_pressure;Samples;Min_cycle;Max_cycle;Signal;HPM_P1;HPM_P2
2023/02/05 00:01:27;;;;;;;106.97;75.68;;;;;;;;;;10063120;28;20136;-59
2023/02/05 00:06:20;;;;;;;93.55;66.10;;;;;;;;;;10063643;28;20125;-60
2023/02/05 00:11:13;;;;;;;82.03;60.10;;;;;;;;;;10065052;28;20489;-59
2023/02/05 00:16:26;;;;;;;91.90;63.35;;;;;;;;;;10066847;28;20057;-59
2023/02/05 00:21:23;;;;;;;85.50;57.95;;;;;;;;;;10063966;28;20080;-59
2023/02/05 00:26:18;;;;;;;72.65;56.60;;;;;;;;;;10068139;28;20046;-59
2023/02/05 00:31:14;;;;;;;80.13;57.67;;;;;;;;;;10066467;28;20057;-59
2023/02/05 00:36:10;;;;;;;99.07;69.35;;;;;;;;;;10066405;28;20095;-59
2023/02/05 00:41:04;;;;;;;97.40;64.28;;;;;;;;;;10067278;28;20114;-59
2023/02/05 00:45:58;;;;;;;90.55;63.70;;;;;;;;;;10066634;28;20164;-59
2023/02/05 00:50:52;;;;;;;90.07;62.90;;;;;;;;;;10064222;28;20052;-59
2023/02/05 00:55:45;;;;;;;96.82;68.32;;;;;;;;;;10056574;28;20053;-59
2023/02/05 01:00:39;;;;;;;91.88;61.33;;;;;;;;;;10066478;28;20053;-59
2023/02/05 01:05:34;;;;;;;93.65;63.88;;;;;;;;;;10065869;28;20049;-59
2023/02/05 01:10:27;;;;;;;98.88;63.33;;;;;;;;;;10062888;28;20493;-59
2023/02/05 01:15:20;;;;;;;92.15;65.10;;;;;;;;;;10063395;28;20038;-59
2023/02/05 01:20:14;;;;;;;87.97;61.40;;;;;;;;;;10062292;28;20041;-59
2023/02/05 01:25:09;;;;;;;94.15;59.75;;;;;;;;;;10062480;28;20579;-59
2023/02/05 01:30:05;;;;;;;83.60;57.63;;;;;;;;;;10059314;28;20054;-60
2023/02/05 01:34:59;;;;;;;88.40;59.15;;;;;;;;;;10064670;28;20124;-60
2023/02/05 01:39:52;;;;;;;87.10;58.88;;;;;;;;;;10060481;28;20184;-59
2023/02/05 01:45:28;;;;;;;87.30;62.45;;;;;;;;;;10062795;28;20406;-60
2023/02/05 01:50:42;;;;;;;87.43;61.35;;;;;;;;;;10060830;28;20048;-60
2023/02/05 01:55:47;;;;;;;83.57;58.20;;;;;;;;;;10044886;28;20080;-60
2023/02/05 02:00:40;;;;;;;92.82;62.88;;;;;;;;;;10070832;28;20077;-59
2023/02/05 02:05:34;;;;;;;82.72;56.47;;;;;;;;;;10056379;28;20082;-59
2023/02/05 02:10:30;;;;;;;89.95;59.75;;;;;;;;;;10068279;28;20048;-59
2023/02/05 02:15:24;;;;;;;91.97;58.33;;;;;;;;;;10071999;28;20053;-59
2023/02/05 02:20:18;;;;;;;82.00;59.53;;;;;;;;;;10071214;28;20107;-59
2023/02/05 02:25:26;;;;;;;83.90;59.97;;;;;;;;;;10054907;28;20058;-59
2023/02/05 02:30:43;;;;;;;82.90;60.13;;;;;;;;;;10064039;28;20037;-59
2023/02/05 02:35:59;;;;;;;93.85;58.88;;;;;;;;;;10068102;28;20476;-60
2023/02/05 02:40:55;;;;;;;87.93;59.90;;;;;;;;;;10067512;28;20481;-59
2023/02/05 02:45:54;;;;;;;84.80;58.10;;;;;;;;;;10068066;28;20061;-59
2023/02/05 02:50:49;;;;;;;78.95;54.90;;;;;;;;;;10070627;28;20124;-60
2023/02/05 02:55:43;;;;;;;85.32;57.28;;;;;;;;;;10071596;28;20449;-60
2023/02/05 03:00:38;;;;;;;75.68;53.80;;;;;;;;;;10050507;28;20425;-60
2023/02/05 03:05:33;;;;;;;83.63;57.33;;;;;;;;;;10052462;28;20512;-60
2023/02/05 03:10:39;;;;;;;82.18;54.15;;;;;;;;;;10070525;28;20049;-60
2023/02/05 03:15:33;;;;;;;74.32;50.45;;;;;;;;;;10058458;28;20073;-59
2023/02/05 03:20:34;;;;;;;61.97;45.33;;;;;;;;;;10068032;28;20399;-59
2023/02/05 03:25:29;;;;;;;59.95;41.25;;;;;;;;;;10062956;28;20137;-59
2023/02/05 03:30:28;;;;;;;66.93;45.47;;;;;;;;;;10070550;28;20061;-59
2023/02/05 03:35:33;;;;;;;59.90;45.27;;;;;;;;;;10068402;28;20056;-60
2023/02/05 03:40:45;;;;;;;63.00;41.85;;;;;;;;;;10068022;28;20073;-60
2023/02/05 03:45:40;;;;;;;59.78;39.67;;;;;;;;;;10067993;28;20050;-59
2023/02/05 03:51:03;;;;;;;63.28;41.67;;;;;;;;;;10066429;28;20076;-60
2023/02/05 03:56:04;;;;;;;56.92;40.22;;;;;;;;;;10055954;28;20057;-60
2023/02/05 04:00:57;;;;;;;57.17;40.42;;;;;;;;;;10067741;28;20060;-60
2023/02/05 04:05:50;;;;;;;58.28;39.95;;;;;;;;;;10067611;28;20049;-60
2023/02/05 04:10:44;;;;;;;64.15;42.50;;;;;;;;;;10067282;28;20088;-60
2023/02/05 04:15:40;;;;;;;56.75;41.03;;;;;;;;;;10062655;28;20069;-59
2023/02/05 04:20:35;;;;;;;67.63;43.88;;;;;;;;;;10068529;28;20073;-59
2023/02/05 04:25:30;;;;;;;63.80;43.58;;;;;;;;;;10062024;28;20041;-59
2023/02/05 04:30:25;;;;;;;60.17;40.70;;;;;;;;;;10068359;28;20104;-60
2023/02/05 04:35:18;;;;;;;67.72;47.03;;;;;;;;;;10066015;28;20045;-59
2023/02/05 04:40:13;;;;;;;63.95;42.20;;;;;;;;;;10067736;28;20456;-59
2023/02/05 04:45:07;;;;;;;59.05;40.92;;;;;;;;;;10066747;28;20057;-59
2023/02/05 04:50:00;;;;;;;60.95;42.55;;;;;;;;;;10066005;28;20041;-59
2023/02/05 04:54:53;;;;;;;62.58;40.78;;;;;;;;;;10065917;28;20061;-59
2023/02/05 04:59:47;;;;;;;61.10;41.05;;;;;;;;;;10067378;28;20119;-59
2023/02/05 05:04:41;;;;;;;53.20;35.13;;;;;;;;;;10066385;28;20045;-59
2023/02/05 05:09:35;;;;;;;37.70;27.48;;;;;;;;;;10067050;28;20041;-60
2023/02/05 05:14:28;;;;;;;53.70;32.10;;;;;;;;;;10066369;28;20080;-60
2023/02/05 05:19:21;;;;;;;43.60;27.15;;;;;;;;;;10066222;28;20128;-59
2023/02/05 05:24:15;;;;;;;51.63;35.95;;;;;;;;;;10057580;28;20045;-59
2023/02/05 05:29:09;;;;;;;56.83;36.38;;;;;;;;;;10064342;28;20053;-59
2023/02/05 05:34:02;;;;;;;52.17;36.13;;;;;;;;;;10064729;28;20108;-59
2023/02/05 05:43:45;;;;;;;74.95;35.97;;;;;;;;;;10065699;28;20057;-59
2023/02/05 05:44:09;;;;;;;149.05;41.47;;;;;;;;;;10064318;28;20053;-59
2023/02/05 05:49:03;;;;;;;162.55;39.55;;;;;;;;;;10064906;28;20064;-59
2023/02/05 05:53:56;;;;;;;103.53;41.65;;;;;;;;;;10064226;28;20046;-59
2023/02/05 05:58:49;;;;;;;123.28;39.85;;;;;;;;;;10065428;28;20045;-59
2023/02/05 06:03:43;;;;;;;123.80;39.30;;;;;;;;;;10064848;28;20057;-58
2023/02/05 06:08:37;;;;;;;155.13;43.72;;;;;;;;;;10064503;28;20038;-59
2023/02/05 06:13:30;;;;;;;188.57;46.35;;;;;;;;;;10065109;28;20054;-59
2023/02/05 06:18:24;;;;;;;198.02;49.85;;;;;;;;;;10065381;28;20501;-59
2023/02/05 06:23:17;;;;;;;207.70;47.55;;;;;;;;;;10054856;28;20053;-59
2023/02/05 06:28:11;;;;;;;226.20;47.67;;;;;;;;;;10064555;28;20054;-59
2023/02/05 06:33:05;;;;;;;309.15;61.30;;;;;;;;;;10063963;28;20080;-59
2023/02/05 06:37:59;;;;;;;421.77;65.25;;;;;;;;;;10064581;28;20417;-59
2023/02/05 06:42:53;;;;;;;595.50;87.60;;;;;;;;;;10064454;28;20081;-67
2023/02/05 06:47:47;;;;;;;353.63;62.67;;;;;;;;;;10051643;28;20061;-59
2023/02/05 06:52:40;;;;;;;543.05;79.88;;;;;;;;;;10055832;28;20473;-60
2023/02/05 06:57:34;;;;;;;355.38;64.32;;;;;;;;;;10055943;28;20049;-60
2023/02/05 07:02:27;;;;;;;559.53;86.55;;;;;;;;;;10062269;28;20077;-60
2023/02/05 07:07:21;;;;;;;238.10;62.15;;;;;;;;;;10059624;28;20132;-60
2023/02/05 07:12:14;;;;;;;483.40;77.68;;;;;;;;;;10061906;28;20132;-60
2023/02/05 07:17:07;;;;;;;454.05;75.63;;;;;;;;;;10056475;28;20096;-60
2023/02/05 07:22:01;;;;;;;225.93;67.93;;;;;;;;;;10059064;28;20517;-59
2023/02/05 07:26:54;;;;;;;458.73;85.32;;;;;;;;;;10057956;28;20449;-60
2023/02/05 07:31:50;;;;;;;332.10;69.90;;;;;;;;;;10067594;28;20136;-60
2023/02/05 07:36:44;;;;;;;376.67;72.40;;;;;;;;;;10069868;28;20076;-61
2023/02/05 07:41:37;;;;;;;305.15;66.90;;;;;;;;;;10069084;28;20073;-60
2023/02/05 07:46:30;;;;;;;378.20;68.18;;;;;;;;;;10067675;28;20060;-60
2023/02/05 07:51:24;;;;;;;244.45;65.88;;;;;;;;;;10068753;28;20498;-60
2023/02/05 07:56:21;;;;;;;121.80;61.30;;;;;;;;;;10066926;28;20136;-60
2023/02/05 08:01:14;;;;;;;124.68;64.13;;;;;;;;;;10068041;28;20049;-60
2023/02/05 08:06:11;;;;;;;109.15;60.60;;;;;;;;;;10066496;28;20052;-61
2023/02/05 08:11:05;;;;;;;118.20;62.53;;;;;;;;;;10068947;28;20076;-60
2023/02/05 08:15:59;;;;;;;102.57;61.22;;;;;;;;;;10067658;28;20073;-60
2023/02/05 08:20:54;;;;;;;105.60;58.97;;;;;;;;;;10067798;28;20061;-60
2023/02/05 08:25:47;;;;;;;86.07;57.40;;;;;;;;;;10066541;28;20049;-60
2023/02/05 08:30:40;;;;;;;96.60;63.33;;;;;;;;;;10067358;28;20441;-59
2023/02/05 08:35:34;;;;;;;93.30;57.53;;;;;;;;;;10067159;28;20057;-59
2023/02/05 08:40:29;;;;;;;97.55;61.33;;;;;;;;;;10066930;28;20045;-60
2023/02/05 08:45:24;;;;;;;98.05;58.17;;;;;;;;;;10067151;28;20448;-60
2023/02/05 08:50:17;;;;;;;98.88;63.92;;;;;;;;;;10067447;28;20112;-60
2023/02/05 08:55:12;;;;;;;84.28;53.53;;;;;;;;;;10067714;28;20092;-64
2023/02/05 09:00:06;;;;;;;87.35;53.55;;;;;;;;;;10066590;28;20457;-61
2023/02/05 09:05:00;;;;;;;86.68;51.95;;;;;;;;;;10065475;28;20136;-60
2023/02/05 09:10:01;;;;;;;84.10;53.22;;;;;;;;;;10066710;28;20055;-60
2023/02/05 09:14:56;;;;;;;84.78;52.65;;;;;;;;;;10065238;28;20136;-62
2023/02/05 09:19:50;;;;;;;92.07;54.97;;;;;;;;;;10064975;28;20052;-63
2023/02/05 09:24:44;;;;;;;98.43;53.53;;;;;;;;;;10066270;28;20091;-78
2023/02/05 09:29:38;;;;;;;82.03;51.47;;;;;;;;;;10032437;28;20050;-61
2023/02/05 09:34:31;;;;;;;100.03;54.33;;;;;;;;;;10011140;28;20410;-60
2023/02/05 09:39:25;;;;;;;91.22;51.45;;;;;;;;;;10013884;28;20069;-61
2023/02/05 09:45:25;;;;;;;79.57;48.88;;;;;;;;;;10008609;28;20491;-60
2023/02/05 09:50:26;;;;;;;91.45;53.47;;;;;;;;;;10007249;28;20061;-61
2023/02/05 09:55:27;;;;;;;83.38;50.38;;;;;;;;;;10014433;28;20046;-61
2023/02/05 10:00:32;;;;;;;80.85;47.70;;;;;;;;;;10006861;28;20469;-60
2023/02/05 10:05:28;;;;;;;80.18;51.50;;;;;;;;;;10011316;28;20308;-60
2023/02/05 10:10:39;;;;;;;93.13;57.17;;;;;;;;;;10008260;28;20057;-60
2023/02/05 10:15:43;;;;;;;113.53;64.95;;;;;;;;;;10012989;28;20064;-60
2023/02/05 10:21:08;;;;;;;103.25;63.05;;;;;;;;;;10006436;28;20455;-60
2023/02/05 10:26:17;;;;;;;93.88;58.05;;;;;;;;;;10015037;28;20049;-60
2023/02/05 10:31:34;;;;;;;102.90;59.33;;;;;;;;;;10005325;28;20050;-60
2023/02/05 10:36:28;;;;;;;100.15;58.95;;;;;;;;;;10006103;28;20034;-60
2023/02/05 10:41:25;;;;;;;95.68;56.58;;;;;;;;;;10003405;28;20054;-60
2023/02/05 10:46:19;;;;;;;93.55;55.50;;;;;;;;;;10012848;28;20438;-60
2023/02/05 10:51:21;;;;;;;82.53;48.08;;;;;;;;;;10010640;28;20062;-60
2023/02/05 10:56:18;;;;;;;83.90;51.05;;;;;;;;;;10015398;28;20060;-60
2023/02/05 11:01:23;;;;;;;86.63;50.97;;;;;;;;;;10023125;28;20046;-60
2023/02/05 11:06:16;;;;;;;88.68;43.78;;;;;;;;;;10015151;28;20034;-60
2023/02/05 11:11:21;;;;;;;73.93;44.70;;;;;;;;;;10017783;28;20074;-61
2023/02/05 11:16:14;;;;;;;55.70;36.10;;;;;;;;;;10012689;28;20052;-60
2023/02/05 11:21:08;;;;;;;53.25;33.33;;;;;;;;;;10010773;28;20070;-60
2023/02/05 11:26:17;;;;;;;50.60;32.45;;;;;;;;;;10013456;28;20138;-60
2023/02/05 11:31:20;;;;;;;47.87;32.27;;;;;;;;;;10013218;28;20054;-60
2023/02/05 11:36:21;;;;;;;45.00;29.55;;;;;;;;;;10011891;28;20054;-61
2023/02/05 11:41:47;;;;;;;50.72;31.38;;;;;;;;;;10010539;28;20141;-60
2023/02/05 11:46:43;;;;;;;39.88;27.42;;;;;;;;;;10006971;28;20058;-60
2023/02/05 11:51:39;;;;;;;44.22;27.65;;;;;;;;;;10006419;28;20053;-61
2023/02/05 11:56:32;;;;;;;46.53;28.27;;;;;;;;;;10012177;28;20084;-60
2023/02/05 12:01:31;;;;;;;37.65;24.42;;;;;;;;;;10009660;28;20081;-61
2023/02/05 12:06:32;;;;;;;39.47;25.43;;;;;;;;;;10013092;28;20040;-61
2023/02/05 12:11:59;;;;;;;35.13;23.67;;;;;;;;;;10017714;28;20081;-61
2023/02/05 12:17:00;;;;;;;40.63;25.70;;;;;;;;;;10012265;28;20038;-61
2023/02/05 12:22:09;;;;;;;32.22;22.75;;;;;;;;;;10014015;28;20054;-61
2023/02/05 12:27:24;;;;;;;20.77;14.95;;;;;;;;;;10009336;28;20038;-61
2023/02/05 12:32:45;;;;;;;28.50;15.80;;;;;;;;;;10013240;28;20136;-61
2023/02/05 12:37:43;;;;;;;17.95;12.68;;;;;;;;;;10003083;28;20056;-59
2023/02/05 12:42:55;;;;;;;14.90;11.15;;;;;;;;;;10009984;28;20064;-59
2023/02/05 12:48:11;;;;;;;12.90;8.80;;;;;;;;;;10011414;28;20065;-62
2023/02/05 12:53:04;;;;;;;13.13;8.50;;;;;;;;;;10007937;28;20092;-61
2023/02/05 12:58:02;;;;;;;10.75;7.38;;;;;;;;;;10016672;28;20072;-62
2023/02/05 13:03:04;;;;;;;5.47;3.15;;;;;;;;;;10010321;28;20116;-61
2023/02/05 13:08:07;;;;;;;6.57;2.72;;;;;;;;;;10007550;28;20050;-61
2023/02/05 13:13:04;;;;;;;4.45;3.25;;;;;;;;;;10008693;28;20089;-60
2023/02/05 13:18:23;;;;;;;5.20;3.13;;;;;;;;;;10010527;28;20089;-61
2023/02/05 13:28:39;;;;;;;5.82;2.75;;;;;;;;;;10005885;28;20828;-70
2023/02/05 13:33:34;;;;;;;6.28;2.70;;;;;;;;;;10004204;28;20061;-61
2023/02/05 13:38:46;;;;;;;4.72;2.70;;;;;;;;;;10020743;28;20053;-61
2023/02/05 13:43:48;;;;;;;3.60;2.22;;;;;;;;;;10024195;28;20132;-62
2023/02/05 13:49:05;;;;;;;6.40;2.10;;;;;;;;;;10018004;28;20062;-72
2023/02/05 13:54:32;;;;;;;8.90;2.28;;;;;;;;;;10018889;28;20050;-61
2023/02/05 13:59:55;;;;;;;5.72;2.60;;;;;;;;;;10025788;28;20649;-61
2023/02/05 14:04:52;;;;;;;4.05;2.78;;;;;;;;;;10025701;28;20054;-62
2023/02/05 14:09:55;;;;;;;8.30;2.92;;;;;;;;;;10033002;28;20053;-61
2023/02/05 14:15:18;;;;;;;5.47;2.80;;;;;;;;;;10033965;28;20073;-62
2023/02/05 14:20:24;;;;;;;6.43;3.50;;;;;;;;;;10033176;28;20489;-62
2023/02/05 14:25:36;;;;;;;5.07;3.30;;;;;;;;;;10031319;28;20053;-63
2023/02/05 14:30:29;;;;;;;9.18;3.22;;;;;;;;;;10021058;28;20108;-62
2023/02/05 14:35:32;;;;;;;5.32;3.00;;;;;;;;;;10029558;28;20459;-63
2023/02/05 14:40:30;;;;;;;7.07;3.30;;;;;;;;;;10031982;28;20069;-62
2023/02/05 14:45:26;;;;;;;5.68;3.40;;;;;;;;;;10031376;28;20447;-62
2023/02/05 14:50:28;;;;;;;4.60;3.00;;;;;;;;;;10032115;28;20050;-62
2023/02/05 14:55:27;;;;;;;4.93;3.40;;;;;;;;;;10032273;28;20095;-62
2023/02/05 15:00:23;;;;;;;5.60;3.83;;;;;;;;;;10031961;28;20526;-62
2023/02/05 15:05:40;;;;;;;6.15;3.50;;;;;;;;;;10031036;28;20038;-62
2023/02/05 15:10:42;;;;;;;7.60;3.40;;;;;;;;;;10029190;28;20537;-62
2023/02/05 15:15:36;;;;;;;5.57;3.05;;;;;;;;;;10029383;28;20034;-62
2023/02/05 15:20:34;;;;;;;5.90;4.20;;;;;;;;;;10031082;28;20073;-62
2023/02/05 15:25:32;;;;;;;5.13;2.88;;;;;;;;;;10028430;28;20129;-62
2023/02/05 15:30:27;;;;;;;4.00;2.58;;;;;;;;;;10030396;28;20080;-62
2023/02/05 15:35:25;;;;;;;12.20;4.22;;;;;;;;;;10030732;28;20112;-62
2023/02/05 15:40:27;;;;;;;8.63;3.25;;;;;;;;;;10030506;28;20108;-61
2023/02/05 15:45:23;;;;;;;4.05;2.85;;;;;;;;;;10030792;28;20050;-62
2023/02/05 15:50:15;;;;;;;6.65;3.78;;;;;;;;;;10029960;28;20046;-61
2023/02/05 15:55:16;;;;;;;5.97;3.00;;;;;;;;;;10030149;28;20121;-61
2023/02/05 16:00:16;;;;;;;6.30;3.35;;;;;;;;;;10030402;28;20049;-61
2023/02/05 16:05:20;;;;;;;8.20;4.20;;;;;;;;;;10019854;28;20080;-61
2023/02/05 16:10:17;;;;;;;6.03;3.20;;;;;;;;;;10030080;28;20529;-62
2023/02/05 16:15:13;;;;;;;10.93;3.58;;;;;;;;;;10029488;28;20141;-61
2023/02/05 16:20:21;;;;;;;4.88;4.47;;;;;;;;;;10029076;28;20049;-62
2023/02/05 16:25:47;;;;;;;10.07;4.30;;;;;;;;;;10029032;28;20119;-62
2023/02/05 16:30:42;;;;;;;8.65;4.22;;;;;;;;;;10029662;28;20389;-62
2023/02/05 16:35:38;;;;;;;8.75;3.72;;;;;;;;;;10027210;28;20451;-62
2023/02/05 16:40:41;;;;;;;8.13;4.10;;;;;;;;;;10028597;28;20062;-62
2023/02/05 16:45:34;;;;;;;7.55;4.30;;;;;;;;;;10028177;28;20062;-62
2023/02/05 16:50:35;;;;;;;6.55;4.20;;;;;;;;;;10027714;28;20568;-62
2023/02/05 16:55:30;;;;;;;5.00;4.30;;;;;;;;;;10027360;28;20053;-62
2023/02/05 17:00:26;;;;;;;7.40;4.60;;;;;;;;;;10027924;28;20471;-62
2023/02/05 17:05:23;;;;;;;8.75;5.03;;;;;;;;;;10024597;28;20046;-62
2023/02/05 17:10:21;;;;;;;8.70;5.10;;;;;;;;;;10027227;28;20411;-62
2023/02/05 17:15:13;;;;;;;7.47;4.80;;;;;;;;;;10027298;28;20049;-61
2023/02/05 17:20:44;;;;;;;10.82;5.35;;;;;;;;;;10021098;28;20050;-62
2023/02/05 17:25:45;;;;;;;10.73;7.18;;;;;;;;;;10027310;28;20073;-63
2023/02/05 17:30:40;;;;;;;10.27;6.80;;;;;;;;;;10026478;28;20633;-62
2023/02/05 17:35:33;;;;;;;14.60;8.45;;;;;;;;;;10025991;28;20049;-62
2023/02/05 17:40:26;;;;;;;7.70;4.95;;;;;;;;;;10026405;28;20056;-62
2023/02/05 17:45:25;;;;;;;14.95;6.18;;;;;;;;;;10002979;28;20061;-62
2023/02/05 17:50:18;;;;;;;9.13;6.00;;;;;;;;;;10025063;28;20046;-62
2023/02/05 17:55:14;;;;;;;10.68;5.95;;;;;;;;;;10022356;28;20529;-62
2023/02/05 18:00:13;;;;;;;7.75;5.15;;;;;;;;;;10023998;28;20457;-62
2023/02/05 18:05:07;;;;;;;13.37;5.93;;;;;;;;;;10024861;28;20049;-61
2023/02/05 18:10:00;;;;;;;15.45;9.50;;;;;;;;;;10023971;28;20319;-62
2023/02/05 18:14:54;;;;;;;14.75;8.88;;;;;;;;;;10024544;28;20068;-61
2023/02/05 18:19:47;;;;;;;14.30;9.80;;;;;;;;;;10025502;28;20467;-62
2023/02/05 18:24:40;;;;;;;15.43;8.27;;;;;;;;;;10025033;28;20045;-61
2023/02/05 18:29:34;;;;;;;9.55;6.60;;;;;;;;;;10022947;28;20045;-62
2023/02/05 18:34:29;;;;;;;9.88;7.32;;;;;;;;;;10025029;28;20049;-61
2023/02/05 18:39:28;;;;;;;20.77;9.13;;;;;;;;;;10024268;28;20094;-61
2023/02/05 18:44:22;;;;;;;9.32;6.70;;;;;;;;;;10024344;28;20057;-62
2023/02/05 18:49:15;;;;;;;9.45;7.05;;;;;;;;;;10024986;28;20081;-62
2023/02/05 18:54:08;;;;;;;9.65;6.35;;;;;;;;;;10031531;28;20407;-62
2023/02/05 18:59:04;;;;;;;15.70;7.57;;;;;;;;;;10030908;28;20061;-61
2023/02/05 19:04:02;;;;;;;11.48;7.90;;;;;;;;;;10031480;28;20138;-62
2023/02/05 19:08:59;;;;;;;10.63;6.80;;;;;;;;;;10031952;28;20422;-63
2023/02/05 19:14:03;;;;;;;13.07;10.20;;;;;;;;;;10031776;28;20552;-61
2023/02/05 19:19:06;;;;;;;13.27;9.55;;;;;;;;;;10031425;28;20046;-61
2023/02/05 19:24:04;;;;;;;15.55;9.77;;;;;;;;;;10030224;28;20445;-62
2023/02/05 19:29:00;;;;;;;22.52;12.90;;;;;;;;;;10030161;28;20073;-62
2023/02/05 19:33:54;;;;;;;14.70;10.63;;;;;;;;;;10029921;28;20054;-61
2023/02/05 19:38:47;;;;;;;18.13;14.13;;;;;;;;;;10029727;28;20056;-61
2023/02/05 19:43:49;;;;;;;17.73;11.00;;;;;;;;;;10029438;28;20501;-62
2023/02/05 19:48:42;;;;;;;13.07;9.32;;;;;;;;;;10029889;28;20137;-62
2023/02/05 19:53:45;;;;;;;15.20;9.27;;;;;;;;;;10028945;28;20060;-62
2023/02/05 19:58:42;;;;;;;20.92;11.77;;;;;;;;;;10029956;28;20132;-62
2023/02/05 20:03:35;;;;;;;17.27;10.05;;;;;;;;;;10028432;28;20485;-62
2023/02/05 20:08:28;;;;;;;23.95;9.18;;;;;;;;;;10028926;28;20136;-62
2023/02/05 20:13:25;;;;;;;12.23;9.48;;;;;;;;;;10028036;28;20141;-61
2023/02/05 20:18:19;;;;;;;14.50;9.45;;;;;;;;;;10028501;28;20046;-62
2023/02/05 20:23:12;;;;;;;22.77;15.25;;;;;;;;;;10028637;28;20058;-63
2023/02/05 20:28:05;;;;;;;16.20;11.55;;;;;;;;;;10028110;28;20502;-63
2023/02/05 20:32:58;;;;;;;12.48;10.63;;;;;;;;;;10003143;28;20488;-62
2023/02/05 20:37:52;;;;;;;13.80;9.70;;;;;;;;;;10016639;28;20056;-63
2023/02/05 20:42:46;;;;;;;18.38;11.75;;;;;;;;;;10015003;28;20054;-62
2023/02/05 20:47:39;;;;;;;18.67;12.43;;;;;;;;;;10024062;28;20058;-62
2023/02/05 20:52:32;;;;;;;16.48;12.25;;;;;;;;;;10016251;28;20046;-62
2023/02/05 20:57:26;;;;;;;11.90;9.02;;;;;;;;;;10015608;28;20134;-65
2023/02/05 21:02:21;;;;;;;14.15;9.50;;;;;;;;;;10004690;28;20133;-63
2023/02/05 21:07:13;;;;;;;12.30;9.45;;;;;;;;;;10002589;28;20208;-64
2023/02/05 21:12:07;;;;;;;14.95;9.68;;;;;;;;;;10011601;28;20058;-63
2023/02/05 21:17:00;;;;;;;14.68;11.20;;;;;;;;;;9992386;28;20050;-63
2023/02/05 21:21:53;;;;;;;17.85;10.43;;;;;;;;;;10002926;28;20510;-62
2023/02/05 21:26:48;;;;;;;25.38;14.75;;;;;;;;;;10022751;28;20088;-63
2023/02/05 21:31:45;;;;;;;19.33;14.93;;;;;;;;;;10014723;28;20421;-64
2023/02/05 21:36:38;;;;;;;19.50;12.15;;;;;;;;;;10016502;28;20045;-63
2023/02/05 21:41:32;;;;;;;23.50;17.13;;;;;;;;;;10021969;28;20080;-62
2023/02/05 21:46:28;;;;;;;21.25;15.38;;;;;;;;;;10020725;28;20085;-61
2023/02/05 21:51:22;;;;;;;19.17;13.65;;;;;;;;;;10021614;28;20078;-62
2023/02/05 21:56:16;;;;;;;18.17;13.43;;;;;;;;;;10025042;28;20425;-62
2023/02/05 22:01:15;;;;;;;22.83;15.88;;;;;;;;;;10026333;28;20057;-62
2023/02/05 22:06:08;;;;;;;21.42;17.10;;;;;;;;;;10026498;28;20049;-62
2023/02/05 22:11:06;;;;;;;30.48;14.02;;;;;;;;;;10024492;28;20108;-62
2023/02/05 22:16:06;;;;;;;16.55;14.05;;;;;;;;;;10025896;28;20111;-62
2023/02/05 22:21:10;;;;;;;21.30;16.88;;;;;;;;;;10025285;28;20064;-61
2023/02/05 22:26:05;;;;;;;23.83;14.00;;;;;;;;;;10026865;28;20056;-62
2023/02/05 22:31:05;;;;;;;43.45;15.52;;;;;;;;;;10033134;28;20129;-62
2023/02/05 22:35:58;;;;;;;18.37;12.23;;;;;;;;;;10032399;28;20046;-62
2023/02/05 22:40:51;;;;;;;18.85;11.60;;;;;;;;;;10032220;28;20061;-62
2023/02/05 22:45:43;;;;;;;16.48;11.23;;;;;;;;;;10032553;28;20120;-62
2023/02/05 22:50:40;;;;;;;16.30;10.48;;;;;;;;;;10032110;28;20486;-62
2023/02/05 22:55:34;;;;;;;19.27;13.82;;;;;;;;;;10032160;28;20400;-62
2023/02/05 23:00:29;;;;;;;20.08;16.33;;;;;;;;;;10031654;28;20058;-62
2023/02/05 23:05:23;;;;;;;16.13;11.77;;;;;;;;;;10031794;28;20041;-63
2023/02/05 23:10:18;;;;;;;18.13;10.75;;;;;;;;;;10030651;28;20129;-63
2023/02/05 23:15:12;;;;;;;17.33;10.13;;;;;;;;;;10032011;28;20108;-63
2023/02/05 23:20:07;;;;;;;15.48;10.57;;;;;;;;;;10030769;28;20046;-63
2023/02/05 23:25:01;;;;;;;13.13;10.50;;;;;;;;;;10030645;28;20046;-62
2023/02/05 23:29:54;;;;;;;15.07;10.80;;;;;;;;;;10031760;28;20129;-63
2023/02/05 23:34:47;;;;;;;12.00;10.50;;;;;;;;;;10031203;28;20050;-62
2023/02/05 23:39:41;;;;;;;14.10;11.40;;;;;;;;;;10029772;28;20117;-62
2023/02/05 23:44:34;;;;;;;15.82;11.95;;;;;;;;;;10029089;28;20062;-63
2023/02/05 23:49:27;;;;;;;14.32;11.43;;;;;;;;;;10028137;28;20053;-62
2023/02/05 23:54:22;;;;;;;15.60;10.05;;;;;;;;;;10029221;28;20048;-62
2023/02/05 23:59:16;;;;;;;13.80;11.20;;;;;;;;;;10027847;28;20045;-62
